createdAt,value
2018-12-13T16:18:29.778Z,760.00
2018-12-13T19:00:08.495Z,64.00
2018-12-13T19:01:08.472Z,64.00
2018-12-13T19:02:08.735Z,64.00
2018-12-13T19:03:08.459Z,68.00
2018-12-13T19:04:08.440Z,64.00
2018-12-13T19:05:08.444Z,68.00
2018-12-13T19:06:08.420Z,68.00
2018-12-13T19:07:08.411Z,68.00
2018-12-13T19:08:08.398Z,68.00
2018-12-13T19:09:08.383Z,68.00
2018-12-13T19:10:08.375Z,68.00
2018-12-13T19:11:08.374Z,52.00
2018-12-13T19:12:08.361Z,68.00
2018-12-13T19:13:08.341Z,68.00
2018-12-13T19:14:08.336Z,68.00
2018-12-13T19:15:08.324Z,68.00
2018-12-13T19:16:08.315Z,68.00
2018-12-13T19:17:08.299Z,68.00
2018-12-13T19:18:08.300Z,68.00
2018-12-13T19:19:08.275Z,68.00
2018-12-13T19:20:08.267Z,32.00
2018-12-13T19:21:08.254Z,68.00
2018-12-13T19:22:08.245Z,80.00
2018-12-13T19:23:08.243Z,76.00
2018-12-13T19:24:08.221Z,80.00
2018-12-13T19:25:08.213Z,80.00
2018-12-13T19:26:08.205Z,76.00
2018-12-13T19:27:08.190Z,76.00
2018-12-13T19:28:08.180Z,76.00
2018-12-13T19:29:08.174Z,20.00
2018-12-13T19:30:08.157Z,20.00
2018-12-13T19:31:08.161Z,20.00
2018-12-13T19:32:08.175Z,20.00
2018-12-13T19:33:08.143Z,20.00
2018-12-13T19:34:08.137Z,20.00
2018-12-13T19:35:08.143Z,20.00
2018-12-13T19:36:08.118Z,20.00
2018-12-13T19:37:08.080Z,20.00
2018-12-13T19:38:08.083Z,20.00
2018-12-13T19:39:08.068Z,20.00
2018-12-13T19:40:08.050Z,20.00
2018-12-13T19:41:08.039Z,20.00
2018-12-13T19:42:08.029Z,20.00
2018-12-13T19:43:08.019Z,20.00
2018-12-13T19:44:08.011Z,20.00
2018-12-13T19:45:07.993Z,20.00
2018-12-13T19:46:07.985Z,20.00
2018-12-13T19:47:07.972Z,20.00
2018-12-13T19:48:07.961Z,20.00
2018-12-13T19:49:07.982Z,20.00
2018-12-13T19:50:07.940Z,20.00
2018-12-13T19:51:07.929Z,20.00
2018-12-13T19:52:07.916Z,20.00
2018-12-13T19:53:07.907Z,20.00
2018-12-13T19:54:07.897Z,20.00
2018-12-13T19:55:08.239Z,20.00
2018-12-13T19:56:07.883Z,24.00
2018-12-13T19:57:07.863Z,24.00
2018-12-13T19:58:07.852Z,24.00
2018-12-13T19:59:07.841Z,24.00
2018-12-13T20:00:08.240Z,24.00
2018-12-13T20:01:07.820Z,24.00
2018-12-13T20:02:07.810Z,24.00
2018-12-13T20:03:07.798Z,20.00
2018-12-13T20:04:07.787Z,20.00
2018-12-13T20:05:07.800Z,20.00
2018-12-13T20:06:08.954Z,20.00
2018-12-13T20:07:07.768Z,20.00
2018-12-13T20:08:07.748Z,20.00
2018-12-13T20:09:07.738Z,20.00
2018-12-13T20:10:07.724Z,20.00
2018-12-13T20:11:07.715Z,20.00
2018-12-13T20:12:07.702Z,20.00
2018-12-13T20:13:07.691Z,20.00
2018-12-13T20:14:07.680Z,20.00
2018-12-13T20:15:07.667Z,20.00
2018-12-13T20:16:07.663Z,20.00
2018-12-13T20:17:07.648Z,20.00
2018-12-13T20:18:07.652Z,20.00
2018-12-13T20:19:07.625Z,20.00
2018-12-13T20:20:07.614Z,20.00
2018-12-13T20:21:07.614Z,20.00
2018-12-13T20:22:07.597Z,20.00
2018-12-13T20:23:07.583Z,20.00
2018-12-13T20:24:07.571Z,20.00
2018-12-13T20:25:07.559Z,20.00
2018-12-13T20:26:07.549Z,20.00
2018-12-13T20:27:07.546Z,20.00
2018-12-13T20:28:07.528Z,20.00
2018-12-13T20:29:07.524Z,20.00
2018-12-13T20:30:07.521Z,20.00
2018-12-13T20:31:07.494Z,20.00
2018-12-13T20:32:07.495Z,20.00
2018-12-13T20:33:07.484Z,24.00
2018-12-13T20:34:07.467Z,24.00
2018-12-13T20:35:07.466Z,20.00
2018-12-13T20:36:07.450Z,20.00
2018-12-13T20:37:07.440Z,20.00
2018-12-13T20:38:07.418Z,20.00
2018-12-13T20:39:07.419Z,12.00
2018-12-13T20:40:07.403Z,20.00
2018-12-13T20:41:07.390Z,24.00
2018-12-13T20:42:07.386Z,24.00
2018-12-13T20:43:07.380Z,24.00
2018-12-13T20:44:07.354Z,24.00
2018-12-13T20:45:07.343Z,24.00
2018-12-13T20:46:07.335Z,24.00
2018-12-13T20:47:07.322Z,24.00
2018-12-13T20:48:07.322Z,24.00
2018-12-13T20:49:07.300Z,24.00
2018-12-13T20:50:07.289Z,24.00
2018-12-13T20:51:07.284Z,24.00
2018-12-13T20:52:07.278Z,24.00
2018-12-13T20:53:07.759Z,24.00
2018-12-13T20:54:07.251Z,24.00
2018-12-13T20:55:07.233Z,24.00
2018-12-13T20:56:07.224Z,24.00
2018-12-13T20:57:07.211Z,24.00
2018-12-13T20:58:07.207Z,24.00
2018-12-13T20:59:07.201Z,24.00
2018-12-13T21:00:07.180Z,24.00
2018-12-13T21:01:07.170Z,24.00
2018-12-13T21:02:07.158Z,24.00
2018-12-13T21:03:07.148Z,24.00
2018-12-13T21:04:07.145Z,24.00
2018-12-13T21:05:07.147Z,24.00
2018-12-13T21:06:07.115Z,24.00
2018-12-13T21:07:07.104Z,24.00
2018-12-13T21:08:07.096Z,24.00
2018-12-13T21:09:07.085Z,24.00
2018-12-13T21:10:07.075Z,20.00
2018-12-13T21:11:07.639Z,20.00
2018-12-13T21:12:07.050Z,24.00
2018-12-13T21:13:07.041Z,20.00
2018-12-13T21:14:07.030Z,20.00
2018-12-13T21:15:07.255Z,20.00
2018-12-13T21:16:07.007Z,20.00
2018-12-13T21:17:07.001Z,20.00
2018-12-13T21:18:06.984Z,20.00
2018-12-13T21:19:06.974Z,20.00
2018-12-13T21:20:06.969Z,20.00
2018-12-13T21:21:06.961Z,20.00
2018-12-13T21:22:06.947Z,20.00
2018-12-13T21:23:06.932Z,20.00
2018-12-13T21:24:06.923Z,20.00
2018-12-13T21:25:06.910Z,20.00
2018-12-13T21:26:06.901Z,20.00
2018-12-13T21:27:06.898Z,20.00
2018-12-13T21:28:06.876Z,20.00
2018-12-13T21:29:06.865Z,20.00
2018-12-13T21:30:06.864Z,20.00
2018-12-13T21:31:06.842Z,20.00
2018-12-13T21:32:06.844Z,20.00
2018-12-13T21:33:06.824Z,20.00
2018-12-13T21:34:06.812Z,20.00
2018-12-13T21:35:06.804Z,20.00
2018-12-13T21:36:06.789Z,20.00
2018-12-13T21:37:06.779Z,20.00
2018-12-13T21:38:07.255Z,20.00
2018-12-13T21:39:06.761Z,20.00
2018-12-13T21:40:06.747Z,20.00
2018-12-13T21:41:06.735Z,20.00
2018-12-13T21:42:06.724Z,20.00
2018-12-13T21:43:06.781Z,20.00
2018-12-13T21:44:06.715Z,20.00
2018-12-13T21:45:06.692Z,20.00
2018-12-13T21:46:06.682Z,12.00
2018-12-13T21:47:06.670Z,20.00
2018-12-13T21:48:06.661Z,20.00
2018-12-13T21:49:06.648Z,20.00
2018-12-13T21:50:06.647Z,20.00
2018-12-13T21:51:06.627Z,20.00
2018-12-13T21:52:06.615Z,20.00
2018-12-13T21:53:06.609Z,20.00
2018-12-13T21:54:06.594Z,20.00
2018-12-13T21:55:06.587Z,20.00
2018-12-13T21:56:06.589Z,20.00
2018-12-13T21:57:06.616Z,20.00
2018-12-13T21:58:06.551Z,20.00
2018-12-13T21:59:06.540Z,20.00
2018-12-13T22:00:06.559Z,20.00
2018-12-13T22:01:06.598Z,20.00
2018-12-13T22:02:06.542Z,20.00
2018-12-13T22:03:06.497Z,20.00
2018-12-13T22:04:06.490Z,20.00
2018-12-13T22:05:06.475Z,20.00
2018-12-13T22:06:06.465Z,24.00
2018-12-13T22:07:06.465Z,20.00
2018-12-13T22:08:06.446Z,24.00
2018-12-13T22:09:06.431Z,24.00
2018-12-13T22:10:06.424Z,24.00
2018-12-13T22:11:06.421Z,24.00
2018-12-13T22:12:06.399Z,24.00
2018-12-13T22:13:06.400Z,24.00
2018-12-13T22:14:06.401Z,24.00
2018-12-13T22:15:06.367Z,24.00
2018-12-13T22:16:06.355Z,24.00
2018-12-13T22:17:06.345Z,24.00
2018-12-13T22:18:06.391Z,24.00
2018-12-13T22:19:06.340Z,24.00
2018-12-13T22:20:06.315Z,24.00
2018-12-13T22:21:06.304Z,20.00
2018-12-13T22:22:06.293Z,20.00
2018-12-13T22:23:06.280Z,24.00
2018-12-13T22:24:06.297Z,24.00
2018-12-13T22:25:06.266Z,24.00
2018-12-13T22:26:06.297Z,20.00
2018-12-13T22:27:06.236Z,20.00
2018-12-13T22:28:06.226Z,20.00
2018-12-13T22:29:06.215Z,20.00
2018-12-13T22:30:06.217Z,24.00
2018-12-13T22:31:06.211Z,24.00
2018-12-13T22:32:06.204Z,24.00
2018-12-13T22:33:06.172Z,24.00
2018-12-13T22:34:06.196Z,24.00
2018-12-13T22:35:06.157Z,24.00
2018-12-13T22:36:06.142Z,24.00
2018-12-13T22:37:06.131Z,20.00
2018-12-13T22:38:06.118Z,24.00
2018-12-13T22:39:06.107Z,24.00
2018-12-13T22:40:06.095Z,24.00
2018-12-13T22:41:06.101Z,24.00
2018-12-13T22:42:06.077Z,24.00
2018-12-13T22:43:06.063Z,20.00
2018-12-13T22:44:06.051Z,24.00
2018-12-13T22:45:06.043Z,20.00
2018-12-13T22:46:06.032Z,24.00
2018-12-13T22:47:06.053Z,20.00
2018-12-13T22:48:06.017Z,20.00
2018-12-13T22:49:05.999Z,24.00
2018-12-13T22:50:05.988Z,24.00
2018-12-13T22:51:05.975Z,24.00
2018-12-13T22:52:05.968Z,24.00
2018-12-13T22:53:05.962Z,20.00
2018-12-13T22:54:05.958Z,20.00
2018-12-13T22:55:05.935Z,24.00
2018-12-13T22:56:05.922Z,24.00
2018-12-13T22:57:05.911Z,24.00
2018-12-13T22:58:05.930Z,24.00
2018-12-13T22:59:05.888Z,24.00
2018-12-13T23:00:05.883Z,24.00
2018-12-13T23:01:05.872Z,20.00
2018-12-13T23:02:05.860Z,24.00
2018-12-13T23:03:05.871Z,20.00
2018-12-13T23:04:05.851Z,24.00
2018-12-13T23:05:05.830Z,20.00
2018-12-13T23:06:05.815Z,24.00
2018-12-13T23:07:05.809Z,24.00
2018-12-13T23:08:05.791Z,20.00
2018-12-13T23:09:05.784Z,20.00
2018-12-13T23:10:05.776Z,20.00
2018-12-13T23:11:05.757Z,20.00
2018-12-13T23:12:05.752Z,20.00
2018-12-13T23:13:05.739Z,24.00
2018-12-13T23:14:05.727Z,24.00
2018-12-13T23:15:05.737Z,24.00
2018-12-13T23:16:05.731Z,24.00
2018-12-13T23:17:05.719Z,20.00
2018-12-13T23:18:05.691Z,24.00
2018-12-13T23:19:05.675Z,20.00
2018-12-13T23:20:05.686Z,20.00
2018-12-13T23:21:05.683Z,20.00
2018-12-13T23:22:05.641Z,24.00
2018-12-13T23:23:05.631Z,24.00
2018-12-13T23:24:05.618Z,24.00
2018-12-13T23:25:05.606Z,16.00
2018-12-13T23:26:05.595Z,20.00
2018-12-13T23:27:05.594Z,20.00
2018-12-13T23:28:05.578Z,20.00
2018-12-13T23:29:05.562Z,0.00
2018-12-13T23:30:05.550Z,0.00
2018-12-13T23:31:05.543Z,0.00
2018-12-13T23:32:05.542Z,0.00
2018-12-13T23:33:05.518Z,0.00
2018-12-13T23:34:05.508Z,0.00
2018-12-13T23:35:05.501Z,0.00
2018-12-13T23:36:05.486Z,0.00
2018-12-13T23:37:05.476Z,0.00
2018-12-13T23:38:05.475Z,0.00
2018-12-13T23:39:05.454Z,0.00
2018-12-13T23:40:05.442Z,0.00
2018-12-13T23:41:05.432Z,0.00
2018-12-13T23:42:05.423Z,0.00
2018-12-13T23:43:05.410Z,0.00
2018-12-13T23:44:05.405Z,0.00
2018-12-13T23:45:05.392Z,0.00
2018-12-13T23:46:05.380Z,0.00
2018-12-13T23:47:05.367Z,0.00
2018-12-13T23:48:05.375Z,0.00
2018-12-13T23:49:05.353Z,0.00
2018-12-13T23:50:05.337Z,0.00
2018-12-13T23:51:05.330Z,0.00
2018-12-13T23:52:05.312Z,0.00
2018-12-13T23:53:05.302Z,0.00
2018-12-13T23:54:05.303Z,0.00
2018-12-13T23:55:05.280Z,0.00
2018-12-13T23:56:05.270Z,0.00
2018-12-13T23:57:05.259Z,0.00
2018-12-13T23:58:05.246Z,0.00
2018-12-13T23:59:05.238Z,0.00
